Time;durP1;ratioP1;P1;durP2;ratioP2;P2;SDS_P1;SDS_P2;PMS_P1;PMS_P2;Temp;Humidity;BMP_temperature;BMP_pressure;BME280_temperature;BME280_humidity;BME280_pressure;Samples;Min_cycle;Max_cycle;Signal;HPM_P1;HPM_P2
2021/01/12 00:02:23;;;;;;;31.08;12.52;;;4.90;79.70;;;;;;5013966;28;20060;-52
2021/01/12 00:04:49;;;;;;;33.63;11.95;;;4.90;79.10;;;;;;5016287;28;20057;-51
2021/01/12 00:07:22;;;;;;;46.35;17.65;;;4.90;79.00;;;;;;5015101;28;20026;-51
2021/01/12 00:09:48;;;;;;;73.60;24.23;;;4.90;79.00;;;;;;5025045;28;20095;-51
2021/01/12 00:12:15;;;;;;;73.20;28.10;;;4.90;79.00;;;;;;5032673;28;20108;-51
2021/01/12 00:14:40;;;;;;;81.38;23.05;;;4.90;78.90;;;;;;5013648;28;20045;-51
2021/01/12 00:17:07;;;;;;;76.15;21.92;;;4.90;78.90;;;;;;5025100;28;20030;-52
2021/01/12 00:19:34;;;;;;;69.00;22.77;;;5.00;79.00;;;;;;5013671;28;20482;-51
2021/01/12 00:22:01;;;;;;;47.42;19.90;;;4.90;78.90;;;;;;5013713;28;20018;-51
2021/01/12 00:24:27;;;;;;;64.13;21.67;;;4.90;78.90;;;;;;5017065;28;20481;-51
2021/01/12 00:26:53;;;;;;;67.60;20.80;;;4.90;78.90;;;;;;5025883;28;20025;-51
2021/01/12 00:29:19;;;;;;;66.25;24.75;;;4.90;78.90;;;;;;5013542;28;20069;-51
2021/01/12 00:31:45;;;;;;;60.60;22.60;;;4.90;78.90;;;;;;5014429;28;20127;-51
2021/01/12 00:34:12;;;;;;;52.80;16.95;;;4.90;78.80;;;;;;5018894;28;20041;-51
2021/01/12 00:36:44;;;;;;;45.35;15.98;;;4.90;78.80;;;;;;5031476;28;20109;-51
2021/01/12 00:39:10;;;;;;;42.03;13.00;;;5.00;78.80;;;;;;5019507;28;20033;-51
2021/01/12 00:41:36;;;;;;;39.83;14.05;;;4.90;78.80;;;;;;5013753;28;20018;-52
2021/01/12 00:44:06;;;;;;;46.10;15.30;;;4.90;78.90;;;;;;5025946;28;20501;-51
2021/01/12 00:46:33;;;;;;;39.45;15.00;;;4.90;78.80;;;;;;5032620;28;20025;-51
2021/01/12 00:48:59;;;;;;;39.10;13.82;;;5.00;78.80;;;;;;5015138;28;20398;-51
2021/01/12 00:51:41;;;;;;;37.55;13.80;;;4.90;78.80;;;;;;5013476;28;20061;-51
2021/01/12 00:54:12;;;;;;;25.30;11.15;;;5.00;78.80;;;;;;5019418;28;20083;-51
2021/01/12 00:56:37;;;;;;;33.10;13.68;;;4.90;78.70;;;;;;5020047;28;20216;-51
2021/01/12 00:59:03;;;;;;;32.03;12.52;;;4.90;78.80;;;;;;5020307;28;20041;-51
2021/01/12 01:01:29;;;;;;;32.53;12.43;;;4.90;78.80;;;;;;5020097;28;20018;-51
2021/01/12 01:03:56;;;;;;;35.70;13.05;;;4.90;78.80;;;;;;5019675;28;20455;-51
2021/01/12 01:06:22;;;;;;;22.40;10.75;;;4.90;78.70;;;;;;5029614;28;20033;-52
2021/01/12 01:08:48;;;;;;;27.98;12.18;;;5.00;78.90;;;;;;5023283;28;20030;-51
2021/01/12 01:11:14;;;;;;;29.58;11.30;;;4.90;78.80;;;;;;5019695;28;20119;-51
2021/01/12 01:13:40;;;;;;;24.95;10.52;;;4.90;78.90;;;;;;5021665;28;20025;-51
2021/01/12 01:16:06;;;;;;;24.50;10.48;;;4.90;78.90;;;;;;5039382;28;20485;-51
2021/01/12 01:18:32;;;;;;;34.03;12.02;;;5.00;78.80;;;;;;5037564;28;20024;-51
2021/01/12 01:20:58;;;;;;;28.10;9.30;;;5.00;78.80;;;;;;5035288;28;20029;-51
2021/01/12 01:23:24;;;;;;;26.98;10.63;;;5.00;78.80;;;;;;5037834;28;20170;-51
2021/01/12 01:25:50;;;;;;;24.83;10.65;;;5.00;78.80;;;;;;5034845;28;20033;-51
2021/01/12 01:28:16;;;;;;;20.27;8.30;;;5.00;78.80;;;;;;5021987;28;20064;-51
2021/01/12 01:30:42;;;;;;;25.75;10.75;;;5.00;78.70;;;;;;5020564;28;20348;-51
2021/01/12 01:33:07;;;;;;;25.92;10.95;;;5.00;78.80;;;;;;5019408;28;20037;-51
2021/01/12 01:35:33;;;;;;;25.65;11.50;;;5.00;78.70;;;;;;5020787;28;20030;-51
2021/01/12 01:37:59;;;;;;;31.77;12.15;;;5.00;78.70;;;;;;5025090;28;20091;-51
2021/01/12 01:40:25;;;;;;;25.88;10.30;;;5.00;78.70;;;;;;5025524;28;20026;-51
2021/01/12 01:42:51;;;;;;;30.38;12.25;;;5.00;78.70;;;;;;5019661;28;20045;-52
2021/01/12 01:45:17;;;;;;;28.58;11.32;;;5.00;78.80;;;;;;5019535;28;20362;-51
2021/01/12 01:47:44;;;;;;;26.83;11.30;;;5.00;79.50;;;;;;5019414;28;20084;-51
2021/01/12 01:50:16;;;;;;;30.15;11.90;;;5.00;78.70;;;;;;5027875;28;20037;-51
2021/01/12 01:52:48;;;;;;;27.67;12.45;;;5.00;78.60;;;;;;5019583;28;20032;-51
2021/01/12 01:55:15;;;;;;;27.15;10.65;;;5.00;78.60;;;;;;5034712;28;20091;-51
2021/01/12 01:57:41;;;;;;;31.30;13.18;;;5.00;78.60;;;;;;5039160;28;20041;-51
2021/01/12 02:00:08;;;;;;;26.88;9.35;;;5.00;78.60;;;;;;5038675;28;20144;-51
2021/01/12 02:02:46;;;;;;;37.08;13.15;;;5.00;78.70;;;;;;5065842;28;20396;-51
2021/01/12 02:05:13;;;;;;;29.33;12.38;;;5.00;78.70;;;;;;5032828;28;20517;-51
2021/01/12 02:07:44;;;;;;;30.85;11.80;;;5.00;78.70;;;;;;5034505;28;20463;-51
2021/01/12 02:10:13;;;;;;;;;;;5.00;78.80;;;;;;5016658;28;20100;-51
2021/01/12 02:12:45;;;;;;;24.88;9.95;;;5.00;78.80;;;;;;5017277;28;19909;-51
2021/01/12 02:15:13;;;;;;;34.03;12.85;;;5.00;78.70;;;;;;5016013;28;20037;-51
2021/01/12 02:17:41;;;;;;;33.03;10.98;;;4.90;78.70;;;;;;5019686;28;20044;-51
2021/01/12 02:20:08;;;;;;;15.90;6.88;;;5.00;78.80;;;;;;5021554;28;20056;-51
2021/01/12 02:22:35;;;;;;;29.60;10.88;;;5.00;78.70;;;;;;5017192;28;20029;-51
2021/01/12 02:25:01;;;;;;;32.60;12.20;;;5.00;78.60;;;;;;5015848;28;20486;-51
2021/01/12 02:27:27;;;;;;;31.67;14.32;;;5.00;78.70;;;;;;5015579;28;20448;-51
2021/01/12 02:29:52;;;;;;;35.67;14.02;;;4.90;78.60;;;;;;5015702;28;20064;-51
2021/01/12 02:32:20;;;;;;;30.75;9.77;;;4.90;78.70;;;;;;5015842;28;20022;-51
2021/01/12 02:34:46;;;;;;;13.23;6.28;;;4.90;78.70;;;;;;5016379;28;20056;-51
2021/01/12 02:37:16;;;;;;;22.73;10.00;;;4.90;78.70;;;;;;5015296;28;20038;-52
2021/01/12 02:39:43;;;;;;;24.98;11.43;;;4.90;78.80;;;;;;5015599;28;20080;-51
2021/01/12 02:42:14;;;;;;;20.33;8.27;;;4.90;78.80;;;;;;5015386;28;20029;-51
2021/01/12 02:44:40;;;;;;;27.63;11.32;;;4.90;78.70;;;;;;5016608;28;20042;-51
2021/01/12 02:47:05;;;;;;;28.23;11.95;;;4.90;78.70;;;;;;5033116;28;20058;-51
2021/01/12 02:49:31;;;;;;;25.58;11.20;;;4.90;78.70;;;;;;5034749;28;20498;-51
2021/01/12 02:51:56;;;;;;;25.58;10.32;;;4.90;78.70;;;;;;5020148;28;20029;-51
2021/01/12 02:54:22;;;;;;;32.92;12.20;;;4.90;78.70;;;;;;5016419;28;20037;-51
2021/01/12 02:56:48;;;;;;;31.45;12.85;;;4.90;78.80;;;;;;5015361;28;20422;-51
2021/01/12 02:59:13;;;;;;;30.65;13.55;;;4.90;78.80;;;;;;5020882;28;20430;-51
2021/01/12 03:01:39;;;;;;;29.75;12.90;;;4.90;78.80;;;;;;5034847;28;20088;-51
2021/01/12 03:04:04;;;;;;;21.63;8.32;;;4.90;78.70;;;;;;5029630;28;20026;-51
2021/01/12 03:06:30;;;;;;;26.30;11.00;;;5.00;78.80;;;;;;5030808;28;20463;-51
2021/01/12 03:08:56;;;;;;;29.90;11.75;;;5.00;78.80;;;;;;5024014;28;20037;-51
2021/01/12 03:11:22;;;;;;;31.35;11.13;;;4.90;78.70;;;;;;5015093;28;20545;-51
2021/01/12 03:13:47;;;;;;;15.70;6.80;;;5.00;78.80;;;;;;5024844;28;20029;-51
2021/01/12 03:16:13;;;;;;;14.38;6.10;;;4.90;78.70;;;;;;5032533;28;20160;-51
2021/01/12 03:18:39;;;;;;;22.95;9.05;;;5.00;78.60;;;;;;5033806;28;20079;-51
2021/01/12 03:21:05;;;;;;;11.38;6.35;;;4.90;78.60;;;;;;5024033;28;20083;-51
2021/01/12 03:23:30;;;;;;;23.08;9.63;;;4.90;78.70;;;;;;5014829;28;20347;-51
2021/01/12 03:25:56;;;;;;;14.90;6.10;;;4.90;78.60;;;;;;5029877;28;20027;-51
2021/01/12 03:28:22;;;;;;;23.35;8.60;;;5.00;78.70;;;;;;5034236;28;20035;-51
2021/01/12 03:30:47;;;;;;;6.32;2.45;;;5.00;78.70;;;;;;5034080;28;20080;-51
2021/01/12 03:33:13;;;;;;;32.80;13.73;;;5.00;78.60;;;;;;5034709;28;20053;-51
2021/01/12 03:35:39;;;;;;;23.95;9.55;;;5.00;78.60;;;;;;5019252;28;20113;-51
2021/01/12 03:38:04;;;;;;;25.85;9.48;;;5.00;78.70;;;;;;5028700;28;20029;-51
2021/01/12 03:40:30;;;;;;;30.33;11.27;;;5.00;78.60;;;;;;5032860;28;20416;-51
2021/01/12 03:42:56;;;;;;;25.13;9.60;;;5.00;78.60;;;;;;5034814;28;20029;-51
2021/01/12 03:45:21;;;;;;;33.70;12.52;;;5.00;78.60;;;;;;5022998;28;20422;-51
2021/01/12 03:47:47;;;;;;;9.48;4.82;;;4.90;78.50;;;;;;5012602;28;20518;-51
2021/01/12 03:50:14;;;;;;;33.10;12.60;;;5.00;78.60;;;;;;5015111;28;20046;-51
2021/01/12 03:52:40;;;;;;;31.52;12.40;;;5.00;78.60;;;;;;5014395;28;20053;-51
2021/01/12 03:55:06;;;;;;;28.30;12.93;;;5.00;78.60;;;;;;5014094;28;20460;-51
2021/01/12 03:57:32;;;;;;;33.88;12.75;;;4.90;78.60;;;;;;5015082;28;20044;-51
2021/01/12 03:59:57;;;;;;;19.48;8.43;;;5.00;78.70;;;;;;5014149;28;20120;-51
2021/01/12 04:02:23;;;;;;;18.98;9.05;;;4.90;78.60;;;;;;5014263;28;20068;-51
2021/01/12 04:04:49;;;;;;;19.73;9.45;;;5.00;78.60;;;;;;5033969;28;20090;-51
2021/01/12 04:07:15;;;;;;;35.47;14.02;;;5.00;78.60;;;;;;5022676;28;20026;-51
2021/01/12 04:09:40;;;;;;;25.70;11.45;;;5.00;78.50;;;;;;5014203;28;20164;-51
2021/01/12 04:12:06;;;;;;;18.27;6.72;;;5.00;78.60;;;;;;5014068;28;20091;-51
2021/01/12 04:14:32;;;;;;;28.15;11.35;;;4.90;78.50;;;;;;5022287;28;20470;-51
2021/01/12 04:16:57;;;;;;;23.48;9.98;;;5.00;78.60;;;;;;5031713;28;20036;-51
2021/01/12 04:19:23;;;;;;;36.45;12.82;;;5.00;78.60;;;;;;5020107;28;20109;-51
2021/01/12 04:21:50;;;;;;;43.42;12.90;;;5.00;78.60;;;;;;5016403;28;20351;-51
2021/01/12 04:24:15;;;;;;;19.88;7.82;;;5.00;78.70;;;;;;5014306;28;20030;-51
2021/01/12 04:26:41;;;;;;;15.40;5.45;;;5.00;78.60;;;;;;5021271;28;20176;-51
2021/01/12 04:29:07;;;;;;;22.90;10.02;;;5.00;78.60;;;;;;5014115;28;20376;-51
2021/01/12 04:31:32;;;;;;;14.98;3.72;;;5.00;78.60;;;;;;5013535;28;20033;-51
2021/01/12 04:33:58;;;;;;;3.55;2.45;;;5.00;78.60;;;;;;5016684;28;20414;-51
2021/01/12 04:36:23;;;;;;;23.27;10.32;;;5.00;78.60;;;;;;5033663;28;20360;-51
2021/01/12 04:38:49;;;;;;;14.18;5.50;;;5.00;78.60;;;;;;5029508;28;20395;-52
2021/01/12 04:41:16;;;;;;;12.68;4.70;;;5.00;78.50;;;;;;5013673;28;20026;-51
2021/01/12 04:43:41;;;;;;;9.52;3.88;;;5.00;78.50;;;;;;5013526;28;20030;-51
2021/01/12 04:46:07;;;;;;;32.05;11.43;;;5.00;78.60;;;;;;5013443;28;20041;-52
2021/01/12 04:48:32;;;;;;;30.15;10.70;;;5.00;78.50;;;;;;5014196;28;20039;-52
2021/01/12 04:51:08;;;;;;;35.22;12.05;;;5.00;78.40;;;;;;5031051;28;20033;-52
2021/01/12 04:53:48;;;;;;;23.35;10.25;;;5.00;78.40;;;;;;5032969;28;20040;-52
2021/01/12 04:56:17;;;;;;;15.40;6.85;;;5.00;78.40;;;;;;5032879;28;20492;-52
2021/01/12 04:58:45;;;;;;;27.15;8.82;;;5.00;78.30;;;;;;5032548;28;20029;-52
2021/01/12 05:01:13;;;;;;;20.10;8.32;;;5.00;78.30;;;;;;5031639;28;20471;-51
2021/01/12 05:03:48;;;;;;;17.92;8.38;;;5.00;78.30;;;;;;5013704;28;20026;-51
2021/01/12 05:06:15;;;;;;;7.75;3.65;;;5.10;78.40;;;;;;5025718;28;20033;-51
2021/01/12 05:08:55;;;;;;;13.48;4.93;;;5.10;78.30;;;;;;5031425;28;20037;-52
2021/01/12 05:11:24;;;;;;;22.25;9.73;;;5.10;78.30;;;;;;5031300;28;20161;-52
2021/01/12 05:13:55;;;;;;;10.83;5.23;;;5.10;78.30;;;;;;5029807;28;20018;-52
2021/01/12 05:16:24;;;;;;;11.60;5.57;;;5.10;78.30;;;;;;5013426;28;20099;-52
2021/01/12 05:18:52;;;;;;;21.35;8.30;;;5.10;78.30;;;;;;5012931;28;20098;-51
2021/01/12 05:21:18;;;;;;;4.10;2.30;;;5.10;78.40;;;;;;5023406;28;20403;-51
2021/01/12 05:23:52;;;;;;;27.15;11.50;;;5.10;78.20;;;;;;5032519;28;20026;-52
2021/01/12 05:26:19;;;;;;;24.05;8.70;;;5.10;78.30;;;;;;5032641;28;20375;-52
2021/01/12 05:28:46;;;;;;;6.32;3.63;;;5.10;78.30;;;;;;5032442;28;20375;-52
2021/01/12 05:31:14;;;;;;;15.85;7.20;;;5.10;78.20;;;;;;5015498;28;20365;-52
2021/01/12 05:33:42;;;;;;;9.00;4.18;;;5.10;78.20;;;;;;5024631;28;20033;-52
2021/01/12 05:36:09;;;;;;;23.58;7.32;;;5.10;78.30;;;;;;5021969;28;20021;-52
2021/01/12 05:38:35;;;;;;;9.40;4.75;;;5.10;78.20;;;;;;5020793;28;20076;-52
2021/01/12 05:41:02;;;;;;;14.98;7.35;;;5.10;78.30;;;;;;5017614;28;20053;-52
2021/01/12 05:43:39;;;;;;;25.65;9.55;;;5.10;78.20;;;;;;5021972;28;20030;-52
2021/01/12 05:46:13;;;;;;;20.95;9.07;;;5.10;78.20;;;;;;5024551;28;20030;-52
2021/01/12 05:48:41;;;;;;;21.13;7.57;;;5.10;78.20;;;;;;5033050;28;20018;-52
2021/01/12 05:51:13;;;;;;;17.65;7.05;;;5.10;78.20;;;;;;5034660;28;20065;-52
2021/01/12 05:53:50;;;;;;;15.38;8.73;;;5.10;78.10;;;;;;5023989;28;20033;-52
2021/01/12 05:56:25;;;;;;;19.08;8.55;;;5.10;78.20;;;;;;5016522;28;20034;-52
2021/01/12 05:58:52;;;;;;;19.75;8.30;;;5.10;78.20;;;;;;5017622;28;20026;-52
2021/01/12 06:01:46;;;;;;;22.40;8.32;;;5.10;78.20;;;;;;5018377;28;20021;-52
2021/01/12 06:04:13;;;;;;;28.85;11.35;;;5.10;78.90;;;;;;5017406;28;20034;-51
2021/01/12 06:06:41;;;;;;;29.05;11.13;;;5.20;76.50;;;;;;5025535;28;20030;-52
2021/01/12 06:09:08;;;;;;;20.55;5.45;;;5.00;76.80;;;;;;5022747;28;20041;-52
2021/01/12 06:11:35;;;;;;;28.10;11.27;;;5.00;76.90;;;;;;5017000;28;20084;-51
2021/01/12 06:14:08;;;;;;;14.10;7.22;;;5.00;76.80;;;;;;5017154;28;20032;-51
2021/01/12 06:16:36;;;;;;;27.35;9.55;;;5.00;76.80;;;;;;5016308;28;20022;-52
2021/01/12 06:19:09;;;;;;;21.65;10.38;;;5.00;76.70;;;;;;5020294;28;20031;-51
2021/01/12 06:21:43;;;;;;;31.23;12.02;;;5.00;76.60;;;;;;5035526;28;20075;-51
2021/01/12 06:24:10;;;;;;;18.80;8.35;;;5.00;76.60;;;;;;5033521;28;20498;-51
2021/01/12 06:26:40;;;;;;;26.42;11.07;;;5.10;76.70;;;;;;5017592;28;20038;-52
2021/01/12 06:29:08;;;;;;;23.13;9.65;;;5.10;76.80;;;;;;5015541;28;20037;-51
2021/01/12 06:31:45;;;;;;;22.13;8.63;;;5.10;76.70;;;;;;5015904;28;20057;-51
2021/01/12 06:34:18;;;;;;;7.10;4.80;;;5.10;76.70;;;;;;5021076;28;20026;-51
2021/01/12 06:36:57;;;;;;;20.80;9.70;;;5.10;76.70;;;;;;5018001;28;20086;-51
2021/01/12 06:39:29;;;;;;;28.90;11.27;;;5.10;76.80;;;;;;5026640;28;20372;-51
2021/01/12 06:41:55;;;;;;;20.45;9.25;;;5.10;76.80;;;;;;5015761;28;20052;-51
2021/01/12 06:44:24;;;;;;;11.82;4.97;;;5.10;76.90;;;;;;5015708;28;20364;-51
2021/01/12 06:46:52;;;;;;;28.75;11.07;;;5.20;76.90;;;;;;5016623;28;20032;-51
2021/01/12 06:49:29;;;;;;;31.02;10.23;;;5.20;76.90;;;;;;5014771;28;20042;-51
2021/01/12 06:52:09;;;;;;;10.63;4.60;;;5.10;76.80;;;;;;5023576;28;21357;-51
2021/01/12 06:54:37;;;;;;;21.80;8.65;;;5.10;76.90;;;;;;5015718;28;20411;-51
2021/01/12 06:57:06;;;;;;;17.17;6.30;;;5.20;77.10;;;;;;5022083;28;20037;-51
2021/01/12 06:59:46;;;;;;;23.75;9.73;;;5.20;77.00;;;;;;5024347;28;20026;-51
2021/01/12 07:02:30;;;;;;;13.80;5.88;;;5.10;76.90;;;;;;5026030;28;20447;-52
2021/01/12 07:05:05;;;;;;;11.35;5.60;;;5.20;77.00;;;;;;5025457;28;20358;-52
2021/01/12 07:07:32;;;;;;;22.70;9.35;;;5.20;77.10;;;;;;5024226;28;20029;-51
2021/01/12 07:09:59;;;;;;;9.15;3.28;;;5.20;77.10;;;;;;5025774;28;20033;-51
2021/01/12 07:12:27;;;;;;;25.85;11.63;;;5.20;77.10;;;;;;5020357;28;20029;-52
2021/01/12 07:14:55;;;;;;;10.43;5.20;;;5.20;77.10;;;;;;5026177;28;20041;-51
2021/01/12 07:17:38;;;;;;;24.70;9.23;;;5.20;77.20;;;;;;5021932;28;20021;-51
2021/01/12 07:20:13;;;;;;;6.63;3.53;;;5.20;77.20;;;;;;5034469;28;20022;-51
2021/01/12 07:22:40;;;;;;;15.88;6.70;;;5.20;77.20;;;;;;5029598;28;20025;-51
2021/01/12 07:25:09;;;;;;;11.65;5.13;;;5.20;77.40;;;;;;5017526;28;20061;-51
2021/01/12 07:27:35;;;;;;;22.20;9.02;;;5.20;77.30;;;;;;5013927;28;20033;-51
2021/01/12 07:30:06;;;;;;;29.67;9.95;;;5.20;77.40;;;;;;5017200;28;20044;-51
2021/01/12 07:32:38;;;;;;;9.10;4.82;;;5.20;77.40;;;;;;5022455;28;20041;-51
2021/01/12 07:35:10;;;;;;;24.17;9.57;;;5.20;77.40;;;;;;5024540;28;20029;-51
2021/01/12 07:37:39;;;;;;;20.23;6.95;;;5.20;77.50;;;;;;5024293;28;20064;-52
2021/01/12 07:40:07;;;;;;;26.42;10.30;;;5.20;77.50;;;;;;5032002;28;20030;-52
2021/01/12 07:42:33;;;;;;;27.63;10.82;;;5.20;77.50;;;;;;5019664;28;20061;-51
2021/01/12 07:45:00;;;;;;;9.20;5.35;;;5.20;77.50;;;;;;5021763;28;20029;-51
2021/01/12 07:47:26;;;;;;;11.68;3.80;;;5.20;77.50;;;;;;5033524;28;20365;-51
2021/01/12 07:49:53;;;;;;;17.70;7.15;;;5.30;77.50;;;;;;5031529;28;20053;-52
2021/01/12 07:52:19;;;;;;;23.55;9.02;;;5.30;77.50;;;;;;5017802;28;20034;-51
2021/01/12 07:54:45;;;;;;;11.50;5.50;;;5.20;77.50;;;;;;5014142;28;20034;-51
2021/01/12 07:57:12;;;;;;;11.50;5.70;;;5.20;77.50;;;;;;5014201;28;20096;-51
2021/01/12 07:59:39;;;;;;;11.00;5.43;;;5.30;77.50;;;;;;5015007;28;20032;-52
2021/01/12 08:02:05;;;;;;;8.13;1.90;;;5.30;77.60;;;;;;5013405;28;20026;-51
2021/01/12 08:04:32;;;;;;;3.05;2.15;;;5.30;77.70;;;;;;5022036;28;20054;-51
2021/01/12 08:06:58;;;;;;;11.23;5.68;;;5.30;77.70;;;;;;5015225;28;20109;-51
2021/01/12 08:09:25;;;;;;;6.65;2.28;;;5.30;77.80;;;;;;5013739;28;20065;-51
2021/01/12 08:11:56;;;;;;;6.50;3.92;;;5.30;77.80;;;;;;5014822;28;20022;-51
2021/01/12 08:14:25;;;;;;;17.48;6.50;;;5.30;77.80;;;;;;5024987;28;20037;-51
2021/01/12 08:16:53;;;;;;;12.05;6.00;;;5.30;77.80;;;;;;5033492;28;20040;-51
2021/01/12 08:19:26;;;;;;;8.10;3.08;;;5.30;77.90;;;;;;5032622;28;20029;-51
2021/01/12 08:21:53;;;;;;;5.75;2.90;;;5.30;78.00;;;;;;5023323;28;20375;-52
2021/01/12 08:24:21;;;;;;;6.60;3.20;;;5.30;78.00;;;;;;5013616;28;20513;-52
2021/01/12 08:26:47;;;;;;;10.52;4.95;;;5.30;78.10;;;;;;5016900;28;20029;-51
2021/01/12 08:29:19;;;;;;;1.00;0.98;;;5.30;78.00;;;;;;5019092;28;20052;-52
2021/01/12 08:31:49;;;;;;;5.60;2.60;;;5.40;78.30;;;;;;5017664;28;20031;-51
2021/01/12 08:34:22;;;;;;;12.77;5.25;;;5.30;78.10;;;;;;5025528;28;20083;-51
2021/01/12 08:36:49;;;;;;;11.68;5.07;;;5.40;78.20;;;;;;5032520;28;20039;-51
2021/01/12 08:39:15;;;;;;;13.40;5.57;;;5.30;78.20;;;;;;5027852;28;20030;-51
2021/01/12 08:41:44;;;;;;;8.35;3.47;;;5.30;78.20;;;;;;5025713;28;20060;-51
2021/01/12 08:44:12;;;;;;;8.13;4.05;;;5.40;78.30;;;;;;5025848;28;20033;-52
2021/01/12 08:46:37;;;;;;;6.55;3.17;;;5.30;78.30;;;;;;5028004;28;20037;-51
2021/01/12 08:49:03;;;;;;;18.13;7.32;;;5.40;78.30;;;;;;5028181;28;20088;-51
2021/01/12 08:51:32;;;;;;;4.13;1.83;;;5.40;78.30;;;;;;5014179;28;20121;-52
2021/01/12 08:53:59;;;;;;;2.70;2.15;;;5.40;78.40;;;;;;5013521;28;20022;-52
2021/01/12 08:56:25;;;;;;;11.80;4.72;;;5.40;78.50;;;;;;5025339;28;20030;-51
2021/01/12 08:59:07;;;;;;;2.30;1.73;;;5.40;78.50;;;;;;5033060;28;20040;-51
2021/01/12 09:01:37;;;;;;;6.32;3.70;;;5.40;78.50;;;;;;5026109;28;20459;-51
2021/01/12 09:04:04;;;;;;;2.58;1.38;;;5.40;78.50;;;;;;5013388;28;20045;-51
2021/01/12 09:06:30;;;;;;;12.15;5.10;;;5.40;78.50;;;;;;5012859;28;20038;-51
2021/01/12 09:09:13;;;;;;;10.93;3.85;;;5.40;78.60;;;;;;5029941;28;20516;-52
2021/01/12 09:11:45;;;;;;;13.77;5.63;;;5.40;78.50;;;;;;5021568;28;20034;-51
2021/01/12 09:14:12;;;;;;;8.55;2.72;;;5.40;78.50;;;;;;5017824;28;20026;-51
2021/01/12 09:16:40;;;;;;;6.68;3.72;;;5.40;78.60;;;;;;5020937;28;20033;-51
2021/01/12 09:19:17;;;;;;;10.68;3.63;;;5.40;78.60;;;;;;5024881;28;20026;-51
2021/01/12 09:21:43;;;;;;;7.25;2.83;;;5.40;78.60;;;;;;5023551;28;20065;-51
2021/01/12 09:24:18;;;;;;;9.13;5.45;;;5.40;78.70;;;;;;5029458;28;20123;-51
2021/01/12 09:26:45;;;;;;;3.45;1.60;;;5.40;78.80;;;;;;5036627;28;20362;-51
2021/01/12 09:29:11;;;;;;;9.27;4.70;;;5.40;78.70;;;;;;5034390;28;20038;-51
2021/01/12 09:31:47;;;;;;;5.13;2.00;;;5.40;78.70;;;;;;5027262;28;20034;-52
2021/01/12 09:34:21;;;;;;;8.73;4.10;;;5.50;78.80;;;;;;5017596;28;20546;-51
2021/01/12 09:36:47;;;;;;;14.05;5.35;;;5.50;78.80;;;;;;5016749;28;20029;-52
2021/01/12 09:39:12;;;;;;;6.72;2.42;;;5.40;78.80;;;;;;5024785;28;20037;-51
2021/01/12 09:41:39;;;;;;;5.20;3.05;;;5.50;78.90;;;;;;5027946;28;20029;-51
2021/01/12 09:44:06;;;;;;;10.55;4.75;;;5.50;79.00;;;;;;5036208;28;20026;-51
2021/01/12 09:46:31;;;;;;;8.63;3.90;;;5.50;79.30;;;;;;5030589;28;20112;-51
2021/01/12 09:48:57;;;;;;;4.90;2.28;;;5.50;79.00;;;;;;5022521;28;20172;-51
2021/01/12 09:51:24;;;;;;;11.20;4.80;;;5.50;79.10;;;;;;5016973;28;20451;-51
2021/01/12 09:53:50;;;;;;;6.15;3.50;;;5.50;79.10;;;;;;5035694;28;20029;-52
2021/01/12 09:56:17;;;;;;;17.27;7.47;;;5.50;79.10;;;;;;5036049;28;20025;-51
2021/01/12 09:58:44;;;;;;;5.38;2.25;;;5.50;79.00;;;;;;5034229;28;20025;-52
2021/01/12 10:01:12;;;;;;;9.98;5.68;;;5.50;79.10;;;;;;5032770;28;20099;-51
2021/01/12 10:03:39;;;;;;;13.60;5.65;;;5.50;79.20;;;;;;5017589;28;20077;-51
2021/01/12 10:06:05;;;;;;;12.20;4.63;;;5.50;79.30;;;;;;5024418;28;20030;-52
2021/01/12 10:08:34;;;;;;;6.55;3.83;;;5.50;79.40;;;;;;5016865;28;20033;-51
2021/01/12 10:11:02;;;;;;;5.07;2.97;;;5.50;79.20;;;;;;5031882;28;20129;-51
2021/01/12 10:13:27;;;;;;;8.65;3.78;;;5.60;79.30;;;;;;5032942;28;20031;-51
2021/01/12 10:15:53;;;;;;;9.65;4.03;;;5.60;79.30;;;;;;5016034;28;20044;-51
2021/01/12 10:18:19;;;;;;;7.25;3.22;;;5.60;79.40;;;;;;5035236;28;20124;-51
2021/01/12 10:20:44;;;;;;;6.15;2.20;;;5.60;79.30;;;;;;5033667;28;20083;-51
2021/01/12 10:23:10;;;;;;;6.55;3.33;;;5.60;79.30;;;;;;5016670;28;20037;-51
2021/01/12 10:25:36;;;;;;;8.50;4.00;;;5.60;79.40;;;;;;5020960;28;20084;-51
2021/01/12 10:28:03;;;;;;;18.80;7.10;;;5.60;79.30;;;;;;5030386;28;20053;-51
2021/01/12 10:30:29;;;;;;;6.03;3.50;;;5.60;79.30;;;;;;5026263;28;20038;-52
2021/01/12 10:32:54;;;;;;;7.63;3.80;;;5.60;80.00;;;;;;5033032;28;20021;-51
2021/01/12 10:35:20;;;;;;;6.72;3.80;;;5.60;79.50;;;;;;5035344;28;20037;-51
2021/01/12 10:37:46;;;;;;;8.18;3.00;;;5.60;80.10;;;;;;5015903;28;20066;-51
2021/01/12 10:40:12;;;;;;;14.52;4.95;;;5.60;79.50;;;;;;5015216;28;20037;-51
2021/01/12 10:42:39;;;;;;;4.07;1.70;;;5.60;79.60;;;;;;5029283;28;20179;-52
2021/01/12 10:45:06;;;;;;;2.08;1.88;;;5.60;79.50;;;;;;5035310;28;20072;-51
2021/01/12 10:47:32;;;;;;;5.78;3.85;;;5.60;79.50;;;;;;5034808;28;20036;-51
2021/01/12 10:49:57;;;;;;;3.03;2.28;;;5.60;79.40;;;;;;5034067;28;20033;-52
2021/01/12 10:52:23;;;;;;;6.80;1.85;;;5.70;79.70;;;;;;5020439;28;20030;-51
2021/01/12 10:54:49;;;;;;;5.15;2.95;;;5.60;79.50;;;;;;5019614;28;20036;-51
2021/01/12 10:57:14;;;;;;;5.90;3.03;;;5.70;79.60;;;;;;5034869;28;20466;-51
2021/01/12 10:59:40;;;;;;;3.65;2.58;;;5.70;79.60;;;;;;5034646;28;20047;-52
2021/01/12 11:02:07;;;;;;;4.55;3.05;;;5.70;79.60;;;;;;5028784;28;20030;-51
2021/01/12 11:04:33;;;;;;;2.13;1.15;;;5.70;79.80;;;;;;5034216;28;20038;-51
2021/01/12 11:06:59;;;;;;;4.47;2.75;;;5.70;79.80;;;;;;5016390;28;20026;-51
2021/01/12 11:09:31;;;;;;;4.35;2.38;;;5.70;79.80;;;;;;5014790;28;20086;-52
2021/01/12 11:12:05;;;;;;;8.68;4.05;;;5.70;79.80;;;;;;5023486;28;20030;-51
2021/01/12 11:14:34;;;;;;;4.03;3.63;;;5.70;79.80;;;;;;5034809;28;20052;-52
2021/01/12 11:17:01;;;;;;;9.25;3.90;;;5.70;79.70;;;;;;5034071;28;20029;-52
2021/01/12 11:19:27;;;;;;;4.53;2.42;;;5.70;79.80;;;;;;5034547;28;20029;-52
2021/01/12 11:21:53;;;;;;;7.25;4.25;;;5.70;79.80;;;;;;5031848;28;20026;-51
2021/01/12 11:24:23;;;;;;;12.82;5.03;;;5.70;79.80;;;;;;5024969;28;20518;-51
2021/01/12 11:26:50;;;;;;;6.28;3.50;;;5.70;79.90;;;;;;5019133;28;20076;-51
2021/01/12 11:29:16;;;;;;;5.90;2.53;;;5.70;79.90;;;;;;5028826;28;20030;-51
2021/01/12 11:31:42;;;;;;;2.88;1.80;;;5.70;79.90;;;;;;5025620;28;20037;-51
2021/01/12 11:34:09;;;;;;;4.47;1.60;;;5.80;80.00;;;;;;5028246;28;20026;-51
2021/01/12 11:36:41;;;;;;;8.48;3.75;;;5.70;79.90;;;;;;5022216;28;20022;-51
2021/01/12 11:39:10;;;;;;;13.90;5.15;;;5.80;80.00;;;;;;5014032;28;20372;-51
2021/01/12 11:41:49;;;;;;;1.87;1.53;;;5.80;80.00;;;;;;5027257;28;20033;-51
2021/01/12 11:44:15;;;;;;;8.02;4.18;;;5.80;80.20;;;;;;5027143;28;20073;-51
2021/01/12 11:46:42;;;;;;;6.53;2.75;;;5.80;80.00;;;;;;5025413;28;20054;-51
2021/01/12 11:49:07;;;;;;;13.25;4.80;;;5.80;79.90;;;;;;5026419;28;20072;-51
2021/01/12 11:51:38;;;;;;;6.22;3.05;;;5.80;80.10;;;;;;5018672;28;20029;-51
2021/01/12 11:54:05;;;;;;;7.05;3.13;;;5.80;80.10;;;;;;5022916;28;20366;-51
2021/01/12 11:56:30;;;;;;;5.68;2.97;;;5.80;80.30;;;;;;5029557;28;20120;-51
2021/01/12 11:58:56;;;;;;;6.05;3.45;;;5.80;80.20;;;;;;5018074;28;20104;-52
2021/01/12 12:01:22;;;;;;;9.07;3.58;;;5.80;80.30;;;;;;5018353;28;20032;-51
2021/01/12 12:03:47;;;;;;;4.53;1.92;;;5.80;80.20;;;;;;5033843;28;20025;-51
2021/01/12 12:06:13;;;;;;;1.88;1.63;;;5.80;80.40;;;;;;5019504;28;20029;-51
2021/01/12 12:08:39;;;;;;;21.38;3.35;;;5.80;80.30;;;;;;5013113;28;20026;-51
2021/01/12 12:11:05;;;;;;;2.60;1.55;;;5.90;80.40;;;;;;5013343;28;20045;-51
2021/01/12 12:13:31;;;;;;;4.68;2.92;;;5.80;80.30;;;;;;5013546;28;20022;-51
2021/01/12 12:15:57;;;;;;;8.35;3.70;;;5.80;80.30;;;;;;5021807;28;20328;-51
2021/01/12 12:18:23;;;;;;;6.22;2.67;;;5.80;80.40;;;;;;5022801;28;20026;-51
2021/01/12 12:20:49;;;;;;;5.53;2.97;;;5.80;80.40;;;;;;5013503;28;20037;-51
2021/01/12 12:23:14;;;;;;;10.43;4.28;;;5.90;80.50;;;;;;5013620;28;20029;-51
2021/01/12 12:25:40;;;;;;;4.63;3.08;;;5.90;80.50;;;;;;5029512;28;20406;-51
2021/01/12 12:28:05;;;;;;;5.00;2.05;;;5.90;80.50;;;;;;5032892;28;20026;-51
2021/01/12 12:30:31;;;;;;;8.73;3.17;;;5.80;80.40;;;;;;5021456;28;20042;-51
2021/01/12 12:32:57;;;;;;;5.53;2.70;;;5.90;80.50;;;;;;5013117;28;20109;-51
2021/01/12 12:35:22;;;;;;;11.90;5.22;;;5.90;80.50;;;;;;5013638;28;20362;-51
2021/01/12 12:37:48;;;;;;;1.10;1.10;;;5.90;80.70;;;;;;5015829;28;20087;-51
2021/01/12 12:40:15;;;;;;;7.47;2.97;;;5.80;80.60;;;;;;5028359;28;20375;-51
2021/01/12 12:42:40;;;;;;;5.53;2.35;;;5.90;80.70;;;;;;5029204;28;20410;-51
2021/01/12 12:45:07;;;;;;;3.85;2.08;;;5.90;80.70;;;;;;5032772;28;20030;-51
2021/01/12 12:47:32;;;;;;;0.50;0.50;;;5.90;80.70;;;;;;5026318;28;20037;-51
2021/01/12 12:49:58;;;;;;;4.63;2.60;;;5.90;80.70;;;;;;5030862;28;20087;-51
2021/01/12 12:52:24;;;;;;;8.13;3.95;;;5.90;80.70;;;;;;5032192;28;20116;-52